Time;durP1;ratioP1;P1;durP2;ratioP2;P2;SDS_P1;SDS_P2;PMS_P1;PMS_P2;Temp;Humidity;BMP_temperature;BMP_pressure;BME280_temperature;BME280_humidity;BME280_pressure;Samples;Min_cycle;Max_cycle;Signal;HPM_P1;HPM_P2
2022/04/05 00:02:07;;;;;;;27.70;16.43;;;;;;;9.24;100.00;100399.06;5037026;28;20033;-85
2022/04/05 00:04:32;;;;;;;28.27;16.43;;;;;;;9.33;100.00;100407.78;5037244;28;20068;-85
2022/04/05 00:06:58;;;;;;;29.77;16.60;;;;;;;9.25;100.00;100398.03;5037496;28;20040;-86
2022/04/05 00:09:24;;;;;;;31.13;16.60;;;;;;;9.32;100.00;100419.66;5037090;28;20384;-85
2022/04/05 00:11:49;;;;;;;32.50;16.73;;;;;;;9.36;100.00;100411.94;5052650;28;20477;-86
2022/04/05 00:14:14;;;;;;;28.67;15.90;;;;;;;9.21;100.00;100404.91;5036393;28;20037;-87
2022/04/05 00:16:40;;;;;;;28.73;16.40;;;;;;;9.33;100.00;100421.31;5052378;28;20029;-87
2022/04/05 00:19:05;;;;;;;25.33;15.10;;;;;;;9.32;100.00;100418.81;5036488;28;20373;-86
2022/04/05 00:21:31;;;;;;;24.03;13.57;;;;;;;9.39;100.00;100420.44;5052663;28;20044;-86
2022/04/05 00:23:56;;;;;;;24.00;14.47;;;;;;;9.35;100.00;100426.50;5036936;28;20088;-87
2022/04/05 00:26:22;;;;;;;27.57;15.00;;;;;;;9.35;100.00;100429.19;5036615;28;20525;-86
2022/04/05 00:28:48;;;;;;;29.33;14.70;;;;;;;9.25;100.00;100416.97;5036363;28;20159;-86
2022/04/05 00:31:14;;;;;;;25.17;15.10;;;;;;;9.28;100.00;100426.53;5037421;28;20045;-85
2022/04/05 00:33:39;;;;;;;25.73;14.53;;;;;;;9.21;100.00;100421.13;5036780;28;20047;-85
2022/04/05 00:36:05;;;;;;;26.90;15.43;;;;;;;9.23;100.00;100437.13;5036489;28;20545;-86
2022/04/05 00:38:31;;;;;;;25.53;15.80;;;;;;;9.13;100.00;100424.88;5036278;28;20503;-84
2022/04/05 00:40:56;;;;;;;27.27;16.33;;;;;;;9.07;100.00;100417.66;5035147;28;20044;-84
2022/04/05 00:43:21;;;;;;;27.93;16.10;;;;;;;9.11;100.00;100426.16;5036570;28;20514;-86
2022/04/05 00:45:47;;;;;;;26.63;15.70;;;;;;;9.08;100.00;100432.84;5037208;28;20119;-84
2022/04/05 00:48:27;;;;;;;25.10;15.87;;;;;;;9.06;100.00;100425.97;5036485;28;20047;-85
2022/04/05 00:50:53;;;;;;;30.70;17.27;;;;;;;9.03;100.00;100420.97;5036981;28;20471;-86
2022/04/05 00:53:21;;;;;;;23.47;17.10;;;;;;;9.05;100.00;100418.91;5035769;28;20067;-86
2022/04/05 00:55:48;;;;;;;27.97;17.93;;;;;;;9.08;100.00;100431.97;5036328;28;20032;-87
2022/04/05 00:58:15;;;;;;;26.83;18.20;;;;;;;9.06;100.00;100428.69;5036530;28;20041;-87
2022/04/05 01:00:41;;;;;;;26.50;17.80;;;;;;;9.06;100.00;100432.19;5036438;28;20037;-84
2022/04/05 01:03:06;;;;;;;28.23;17.17;;;;;;;9.01;100.00;100425.78;5036107;28;20056;-88
2022/04/05 01:05:33;;;;;;;28.70;17.63;;;;;;;9.07;100.00;100424.91;5034920;28;21322;-84
2022/04/05 01:07:59;;;;;;;29.53;18.70;;;;;;;9.05;100.00;100432.41;5035926;28;20043;-87
2022/04/05 01:10:28;;;;;;;27.20;18.70;;;;;;;9.05;100.00;100435.94;5034974;28;20419;-86
2022/04/05 01:12:53;;;;;;;27.23;19.10;;;;;;;8.89;100.00;100418.28;5036554;28;20047;-85
2022/04/05 01:15:19;;;;;;;26.67;19.47;;;;;;;8.99;100.00;100428.69;5036029;28;20060;-86
2022/04/05 01:17:44;;;;;;;28.67;18.53;;;;;;;8.97;100.00;100427.25;5033838;28;20041;-86
2022/04/05 01:20:10;;;;;;;29.07;19.57;;;;;;;8.99;100.00;100434.09;5035599;28;20190;-84
2022/04/05 01:22:45;;;;;;;31.63;19.47;;;;;;;8.97;100.00;100440.75;5035799;28;20041;-87
2022/04/05 01:25:18;;;;;;;28.60;19.63;;;;;;;8.87;100.00;100425.81;5036124;28;20037;-84
2022/04/05 01:27:43;;;;;;;28.00;19.87;;;;;;;8.93;100.00;100430.38;5036017;28;20040;-87
2022/04/05 01:30:10;;;;;;;27.30;18.97;;;;;;;8.96;100.00;100434.50;5036390;28;20041;-86
2022/04/05 01:32:37;;;;;;;26.73;18.47;;;;;;;9.01;100.00;100444.69;5036406;28;20032;-84
2022/04/05 01:35:03;;;;;;;25.17;18.50;;;;;;;9.02;100.00;100432.84;5035539;28;20127;-83
2022/04/05 01:37:28;;;;;;;28.07;19.53;;;;;;;9.01;100.00;100436.59;5032916;28;20476;-83
2022/04/05 01:39:54;;;;;;;28.27;20.13;;;;;;;8.95;100.00;100439.09;5034839;28;20529;-85
2022/04/05 01:42:19;;;;;;;29.13;20.70;;;;;;;8.98;100.00;100442.41;5036277;28;20468;-86
2022/04/05 01:44:45;;;;;;;30.60;20.43;;;;;;;8.98;100.00;100443.25;5035897;28;20122;-86
2022/04/05 01:47:15;;;;;;;28.67;19.87;;;;;;;8.83;100.00;100419.16;5035750;28;20033;-86
2022/04/05 01:49:44;;;;;;;28.53;19.57;;;;;;;8.95;100.00;100440.97;5036036;28;20047;-84
2022/04/05 01:52:10;;;;;;;29.27;19.73;;;;;;;8.96;100.00;100448.00;5039761;28;20044;-83
2022/04/05 01:54:36;;;;;;;29.40;20.03;;;;;;;8.91;100.00;100451.34;5039656;28;20423;-88
2022/04/05 01:57:03;;;;;;;29.23;19.90;;;;;;;8.84;100.00;100436.19;5040566;28;20036;-86
2022/04/05 01:59:30;;;;;;;26.40;19.40;;;;;;;8.88;100.00;100450.94;5039405;28;20157;-84
2022/04/05 02:01:56;;;;;;;27.70;18.40;;;;;;;8.89;100.00;100450.72;5039421;28;20124;-89
2022/04/05 02:04:22;;;;;;;29.03;19.07;;;;;;;8.86;100.00;100444.94;5038801;28;20371;-85
2022/04/05 02:06:47;;;;;;;26.23;18.50;;;;;;;8.87;100.00;100450.13;5038558;28;20025;-83
2022/04/05 02:09:14;;;;;;;29.37;19.70;;;;;;;8.86;100.00;100447.63;5039058;28;20098;-83
2022/04/05 02:11:41;;;;;;;26.87;18.87;;;;;;;8.85;100.00;100452.19;5039760;28;20037;-87
2022/04/05 02:14:06;;;;;;;28.43;19.73;;;;;;;8.84;100.00;100457.78;5054309;28;20064;-88
2022/04/05 02:16:32;;;;;;;28.43;19.87;;;;;;;8.81;100.00;100453.63;5037667;28;20120;-86
2022/04/05 02:18:58;;;;;;;30.30;20.50;;;;;;;8.82;100.00;100449.09;5039821;28;20380;-84
2022/04/05 02:21:23;;;;;;;30.33;20.57;;;;;;;8.75;100.00;100439.09;5037694;28;20572;-84
2022/04/05 02:23:48;;;;;;;28.33;19.97;;;;;;;8.74;100.00;100442.03;5039316;28;20041;-84
2022/04/05 02:26:14;;;;;;;29.73;19.60;;;;;;;8.80;100.00;100454.72;5039037;28;20537;-84
2022/04/05 02:28:39;;;;;;;29.97;19.97;;;;;;;8.79;100.00;100456.56;5039411;28;20171;-85
2022/04/05 02:31:05;;;;;;;29.63;20.10;;;;;;;8.75;100.00;100441.00;5037535;28;20464;-85
2022/04/05 02:33:30;;;;;;;34.27;20.47;;;;;;;8.79;100.00;100461.97;5037139;28;20469;-85
2022/04/05 02:35:56;;;;;;;30.67;20.73;;;;;;;8.75;100.00;100449.91;5038799;28;20048;-84
2022/04/05 02:38:21;;;;;;;31.33;19.90;;;;;;;8.72;100.00;100441.41;5038867;28;21762;-84
2022/04/05 02:40:47;;;;;;;30.70;20.57;;;;;;;8.61;100.00;100430.19;5038366;28;20053;-84
2022/04/05 02:43:12;;;;;;;28.67;20.70;;;;;;;8.66;100.00;100439.53;5037537;28;21274;-85
2022/04/05 02:45:38;;;;;;;29.20;19.67;;;;;;;8.69;100.00;100444.50;5038324;28;20439;-85
2022/04/05 02:48:03;;;;;;;27.27;18.60;;;;;;;8.69;100.00;100436.41;5038779;28;21461;-85
2022/04/05 02:50:29;;;;;;;27.07;18.57;;;;;;;8.65;100.00;100444.13;5038238;28;21730;-87
2022/04/05 02:52:54;;;;;;;25.77;17.63;;;;;;;8.60;100.00;100436.63;5039106;28;20058;-85
2022/04/05 02:55:20;;;;;;;27.97;17.40;;;;;;;8.61;100.00;100430.19;5038603;28;20036;-86
2022/04/05 02:57:46;;;;;;;26.47;17.30;;;;;;;8.59;100.00;100424.19;5038410;28;20056;-84
2022/04/05 03:00:13;;;;;;;25.60;16.67;;;;;;;8.58;100.00;100427.06;5038849;28;20040;-84
2022/04/05 03:02:39;;;;;;;24.53;15.77;;;;;;;8.59;100.00;100428.75;5036747;28;20091;-86
2022/04/05 03:05:06;;;;;;;25.80;16.57;;;;;;;8.55;100.00;100419.41;5036836;28;20641;-84
2022/04/05 03:07:36;;;;;;;25.40;16.17;;;;;;;8.56;100.00;100423.75;5038721;28;20369;-88
2022/04/05 03:10:06;;;;;;;23.67;16.57;;;;;;;8.55;100.00;100420.22;5039117;28;20101;-86
2022/04/05 03:12:34;;;;;;;25.87;15.97;;;;;;;8.57;100.00;100428.13;5029784;28;20041;-88
2022/04/05 03:15:00;;;;;;;27.20;16.17;;;;;;;8.59;100.00;100437.69;5037972;28;20048;-89
2022/04/05 03:17:25;;;;;;;27.80;18.30;;;;;;;8.63;100.00;100445.38;5038709;28;20090;-89
2022/04/05 03:19:51;;;;;;;25.93;18.20;;;;;;;8.53;100.00;100433.13;5035434;28;20033;-86
2022/04/05 03:22:16;;;;;;;29.30;19.27;;;;;;;8.54;100.00;100428.53;5037079;28;20033;-85
2022/04/05 03:24:42;;;;;;;31.33;18.97;;;;;;;8.57;100.00;100441.63;5038478;28;20021;-87
2022/04/05 03:27:08;;;;;;;27.20;18.27;;;;;;;8.46;100.00;100421.50;5038247;28;20069;-88
2022/04/05 03:29:34;;;;;;;26.43;17.03;;;;;;;8.47;100.00;100419.59;5037488;28;20182;-85
2022/04/05 03:32:00;;;;;;;27.00;16.70;;;;;;;8.54;100.00;100428.53;5037891;28;20040;-85
2022/04/05 03:34:25;;;;;;;23.07;15.80;;;;;;;8.53;100.00;100430.41;5037911;28;20090;-87
2022/04/05 03:37:21;;;;;;;23.53;15.53;;;;;;;8.69;100.00;100449.91;5036467;28;20090;-84
2022/04/05 03:39:47;;;;;;;23.23;14.90;;;;;;;8.50;100.00;100422.72;5037083;28;20041;-88
2022/04/05 03:42:12;;;;;;;22.37;14.30;;;;;;;8.67;100.00;100452.00;5038393;28;20037;-90
2022/04/05 03:44:38;;;;;;;23.67;14.77;;;;;;;8.55;100.00;100431.00;5038185;28;20045;-91
2022/04/05 03:47:03;;;;;;;24.93;15.37;;;;;;;8.45;100.00;100422.53;5052788;28;20051;-89
2022/04/05 03:49:29;;;;;;;24.10;15.40;;;;;;;8.64;100.00;100437.06;5038517;28;20037;-88
2022/04/05 03:51:54;;;;;;;21.60;15.13;;;;;;;8.59;100.00;100435.00;5037754;28;20384;-89
2022/04/05 03:54:19;;;;;;;23.23;14.83;;;;;;;8.47;100.00;100420.44;5038190;28;20086;-87
2022/04/05 03:56:45;;;;;;;24.57;15.60;;;;;;;8.49;100.00;100426.47;5037543;28;20488;-87
2022/04/05 03:59:10;;;;;;;24.33;15.77;;;;;;;8.52;100.00;100428.75;5053321;28;20120;-87
2022/04/05 04:01:36;;;;;;;26.27;16.70;;;;;;;8.46;100.00;100413.41;5037884;28;20124;-89
2022/04/05 04:04:01;;;;;;;26.07;16.70;;;;;;;8.51;100.00;100416.28;5053595;28;20434;-90
2022/04/05 04:06:27;;;;;;;23.73;15.80;;;;;;;8.50;100.00;100420.03;5036742;28;20588;-89
2022/04/05 04:08:52;;;;;;;24.27;15.93;;;;;;;8.49;100.00;100414.84;5038972;28;20384;-87
2022/04/05 04:11:18;;;;;;;25.43;16.80;;;;;;;8.56;100.00;100423.75;5038416;28;20150;-88
2022/04/05 04:13:43;;;;;;;25.37;16.60;;;;;;;8.55;100.00;100430.19;5038528;28;20043;-85
2022/04/05 04:16:09;;;;;;;25.80;17.30;;;;;;;8.58;100.00;100424.38;5038193;28;20148;-90
2022/04/05 04:18:34;;;;;;;23.93;16.50;;;;;;;8.53;100.00;100419.59;5036707;28;20032;-88
2022/04/05 04:20:59;;;;;;;23.67;16.37;;;;;;;8.59;100.00;100421.50;5037122;28;20056;-89
2022/04/05 04:23:25;;;;;;;23.73;17.93;;;;;;;8.52;100.00;100409.84;5037504;28;20045;-89
2022/04/05 04:25:52;;;;;;;25.93;16.60;;;;;;;8.53;100.00;100405.28;5039708;28;20075;-87
2022/04/05 04:28:17;;;;;;;26.00;17.80;;;;;;;8.55;100.00;100412.13;5039392;28;20061;-87
2022/04/05 04:30:42;;;;;;;24.87;16.73;;;;;;;8.63;100.00;100419.19;5039477;28;20567;-86
2022/04/05 04:33:11;;;;;;;26.87;17.47;;;;;;;8.63;100.00;100431.88;5039155;28;20052;-87
2022/04/05 04:35:38;;;;;;;26.73;16.43;;;;;;;8.50;100.00;100408.38;5039403;28;20045;-89
2022/04/05 04:38:06;;;;;;;22.47;15.40;;;;;;;8.53;100.00;100414.22;5038601;28;20182;-85
2022/04/05 04:40:31;;;;;;;25.70;16.10;;;;;;;8.54;100.00;100415.88;5039776;28;20039;-85
2022/04/05 04:42:56;;;;;;;23.13;15.40;;;;;;;8.55;100.00;100417.50;5039862;28;20041;-86
2022/04/05 04:45:26;;;;;;;25.33;16.30;;;;;;;8.60;100.00;100425.81;5038537;28;20047;-84
2022/04/05 04:47:51;;;;;;;23.13;14.87;;;;;;;8.64;100.00;100428.13;5038694;28;20040;-85
2022/04/05 04:50:17;;;;;;;23.93;15.20;;;;;;;8.61;100.00;100426.69;5038508;28;20033;-85
2022/04/05 04:52:42;;;;;;;21.37;13.97;;;;;;;8.63;100.00;100437.25;5037510;28;20389;-85
2022/04/05 04:55:08;;;;;;;21.67;14.60;;;;;;;8.55;100.00;100427.50;5036711;28;20461;-89
2022/04/05 04:57:34;;;;;;;22.13;14.27;;;;;;;8.52;100.00;100420.66;5036848;28;20048;-86
2022/04/05 04:59:59;;;;;;;23.93;14.30;;;;;;;8.69;100.00;100447.22;5037328;28;20035;-87
2022/04/05 05:02:25;;;;;;;23.63;14.63;;;;;;;8.56;100.00;100423.75;5038508;28;20072;-86
2022/04/05 05:04:51;;;;;;;25.80;14.50;;;;;;;8.51;100.00;100421.69;5038668;28;20033;-87
2022/04/05 05:07:17;;;;;;;22.70;14.67;;;;;;;8.54;100.00;100423.13;5040316;28;20425;-88
2022/04/05 05:09:43;;;;;;;23.90;14.87;;;;;;;8.55;100.00;100433.72;5053536;28;20477;-85
2022/04/05 05:12:10;;;;;;;23.27;15.10;;;;;;;8.52;100.00;100423.34;5038906;28;20309;-86
2022/04/05 05:14:36;;;;;;;24.10;13.93;;;;;;;8.53;100.00;100429.59;5038865;28;20110;-88
2022/04/05 05:17:01;;;;;;;21.97;15.00;;;;;;;8.63;100.00;100446.19;5054815;28;20127;-86
2022/04/05 05:19:27;;;;;;;23.40;15.23;;;;;;;8.49;100.00;100423.75;5036033;28;20057;-86
2022/04/05 05:21:55;;;;;;;23.20;15.10;;;;;;;8.53;100.00;100425.00;5036688;28;20044;-86
2022/04/05 05:24:20;;;;;;;21.37;14.97;;;;;;;8.54;100.00;100434.78;5039969;28;20115;-89
2022/04/05 05:26:45;;;;;;;23.77;15.40;;;;;;;8.70;100.00;100457.00;5045323;28;20358;-90
2022/04/05 05:29:12;;;;;;;21.93;15.33;;;;;;;8.47;100.00;100431.22;5044802;28;20048;-87
2022/04/05 05:31:37;;;;;;;23.43;14.93;;;;;;;8.50;100.00;100430.00;5043984;28;20375;-88
2022/04/05 05:34:03;;;;;;;23.87;15.07;;;;;;;8.50;100.00;100428.13;5043073;28;20037;-85
2022/04/05 05:36:28;;;;;;;24.53;14.13;;;;;;;8.53;100.00;100419.59;5043519;28;20036;-85
2022/04/05 05:38:54;;;;;;;23.93;15.33;;;;;;;8.55;100.00;100439.13;5044268;28;20044;-83
2022/04/05 05:41:19;;;;;;;21.13;14.00;;;;;;;8.56;100.00;100437.28;5051443;28;20025;-83
2022/04/05 05:43:48;;;;;;;21.90;14.63;;;;;;;8.58;100.00;100449.53;5054981;28;20032;-83
2022/04/05 05:46:14;;;;;;;22.53;14.27;;;;;;;8.60;100.00;100452.00;5050731;28;20032;-85
2022/04/05 05:48:40;;;;;;;21.60;14.40;;;;;;;8.53;100.00;100445.78;5050921;28;20677;-83
2022/04/05 05:51:06;;;;;;;21.87;14.00;;;;;;;8.51;100.00;100440.56;5051011;28;20025;-87
2022/04/05 05:53:32;;;;;;;22.10;14.30;;;;;;;8.55;100.00;100449.91;5051673;28;20476;-89
2022/04/05 05:55:58;;;;;;;21.60;14.17;;;;;;;8.55;100.00;100444.53;5048821;28;20118;-84
2022/04/05 05:58:26;;;;;;;23.40;14.77;;;;;;;8.54;100.00;100456.38;5054271;28;20090;-83
2022/04/05 06:00:51;;;;;;;24.17;15.17;;;;;;;8.51;100.00;100447.84;5048807;28;20090;-83
2022/04/05 06:03:35;;;;;;;23.10;15.30;;;;;;;8.67;100.00;100485.25;5052495;28;20029;-83
2022/04/05 06:06:01;;;;;;;25.83;15.40;;;;;;;8.50;100.00;100452.44;5049105;28;20527;-85
2022/04/05 06:08:27;;;;;;;22.70;15.50;;;;;;;8.61;100.00;100468.00;5051320;28;20389;-83
2022/04/05 06:10:52;;;;;;;23.10;16.00;;;;;;;8.52;100.00;100453.03;5048835;28;20032;-84
2022/04/05 06:13:18;;;;;;;26.10;16.13;;;;;;;8.68;100.00;100478.00;5053528;28;20036;-84
2022/04/05 06:15:43;;;;;;;27.10;16.40;;;;;;;8.55;100.00;100454.50;5050221;28;20068;-83
2022/04/05 06:18:12;;;;;;;24.43;15.47;;;;;;;8.58;100.00;100449.53;5052224;28;20048;-84
2022/04/05 06:20:37;;;;;;;26.73;16.27;;;;;;;8.59;100.00;100456.59;5050664;28;20485;-82
2022/04/05 06:23:05;;;;;;;25.73;16.43;;;;;;;8.60;100.00;100458.22;5050847;28;20124;-83
2022/04/05 06:25:35;;;;;;;25.13;16.17;;;;;;;8.60;100.00;100468.22;5049661;28;20277;-83
2022/04/05 06:28:04;;;;;;;29.40;16.47;;;;;;;8.75;100.00;100481.50;5048476;28;20024;-82
2022/04/05 06:30:34;;;;;;;27.77;16.20;;;;;;;8.60;100.00;100455.53;5050112;28;20948;-88
2022/04/05 06:33:20;;;;;;;25.73;15.50;;;;;;;8.64;100.00;100465.94;5064509;28;20037;-83
2022/04/05 06:35:54;;;;;;;25.67;15.00;;;;;;;8.82;100.00;100484.22;5047673;28;20032;-85
2022/04/05 06:38:20;;;;;;;23.90;14.63;;;;;;;8.70;100.00;100468.59;5062716;28;20601;-83
2022/04/05 06:40:47;;;;;;;24.03;15.43;;;;;;;8.70;100.00;100471.31;5047105;28;20118;-86
2022/04/05 06:43:17;;;;;;;24.73;14.80;;;;;;;8.74;100.00;100467.19;5046774;28;20036;-85
2022/04/05 06:45:43;;;;;;;25.57;15.37;;;;;;;8.74;100.00;100461.78;5044985;28;20024;-84
2022/04/05 06:48:09;;;;;;;23.73;14.80;;;;;;;8.88;100.00;100481.50;5043245;28;20416;-82
2022/04/05 06:50:35;;;;;;;23.60;14.60;;;;;;;8.81;100.00;100466.34;5043318;28;20060;-81
2022/04/05 06:53:03;;;;;;;20.47;13.43;;;;;;;8.90;100.00;100495.63;5045009;28;20036;-84
2022/04/05 06:55:28;;;;;;;24.37;14.03;;;;;;;8.86;100.00;100488.97;5061086;28;20043;-84
2022/04/05 06:57:57;;;;;;;22.17;13.87;;;;;;;9.00;100.00;100510.56;5042846;28;20028;-82
2022/04/05 07:00:23;;;;;;;24.93;13.07;;;;;;;8.90;100.00;100484.81;5043893;28;20063;-87
2022/04/05 07:02:51;;;;;;;20.10;12.50;;;;;;;8.90;100.00;100482.09;5044212;28;20031;-84
2022/04/05 07:05:17;;;;;;;20.27;13.00;;;;;;;8.93;100.00;100495.22;5042815;28;20074;-85
2022/04/05 07:07:43;;;;;;;20.50;12.60;;;;;;;8.86;100.00;100488.16;5045132;28;20029;-84
2022/04/05 07:10:11;;;;;;;20.47;12.87;;;;;;;8.83;100.00;100480.47;5043055;28;20047;-87
2022/04/05 07:12:37;;;;;;;20.40;12.60;;;;;;;8.84;100.00;100492.91;5043326;28;20037;-86
2022/04/05 07:15:04;;;;;;;19.77;11.80;;;;;;;8.95;100.00;100508.53;5044525;28;20027;-85
2022/04/05 07:17:29;;;;;;;21.80;13.37;;;;;;;8.93;100.00;100500.63;5040598;28;20539;-84
2022/04/05 07:19:55;;;;;;;20.83;12.67;;;;;;;9.02;100.00;100508.50;5040781;28;20053;-84
2022/04/05 07:22:20;;;;;;;20.40;12.17;;;;;;;8.97;100.00;100486.69;5042897;28;20033;-82
2022/04/05 07:25:04;;;;;;;19.90;11.90;;;;;;;9.13;100.00;100515.97;5047778;28;20105;-81
2022/04/05 07:27:30;;;;;;;20.60;12.05;;;;;;;9.03;100.00;100493.94;5052386;28;20032;-82
2022/04/05 07:29:55;;;;;;;18.07;11.73;;;;;;;9.05;100.00;100502.69;5053971;28;20368;-83
2022/04/05 07:32:21;;;;;;;18.83;11.43;;;;;;;9.01;100.00;100487.94;5054654;28;20461;-84
2022/04/05 07:34:46;;;;;;;20.07;11.87;;;;;;;9.11;100.00;100491.00;5054284;28;20108;-83
2022/04/05 07:40:48;;;;;;;19.07;11.50;;;;;;;9.19;100.00;100493.50;5055180;28;20115;-84
2022/04/05 07:43:27;;;;;;;18.57;11.03;;;;;;;9.20;100.00;100489.75;5052169;28;20036;-83
2022/04/05 07:45:54;;;;;;;17.33;10.43;;;;;;;9.21;100.00;100490.59;5054837;28;20376;-82
2022/04/05 07:48:22;;;;;;;18.03;10.63;;;;;;;9.16;100.00;100475.00;5051723;28;20033;-83
2022/04/05 07:50:48;;;;;;;18.00;11.07;;;;;;;9.20;100.00;100489.75;5054335;28;20025;-84
2022/04/05 07:53:14;;;;;;;19.87;10.67;;;;;;;9.18;100.00;100483.75;5052722;28;20036;-83
2022/04/05 07:55:39;;;;;;;17.77;10.60;;;;;;;9.21;100.00;100496.00;5067826;28;20052;-83
2022/04/05 07:58:05;;;;;;;18.33;10.90;;;;;;;9.18;100.00;100488.28;5054786;28;20033;-83
2022/04/05 08:00:31;;;;;;;18.87;10.80;;;;;;;9.16;100.00;100490.41;5054184;28;20037;-83
2022/04/05 08:02:57;;;;;;;16.03;9.80;;;;;;;9.17;100.00;100479.38;5054307;28;20365;-83
2022/04/05 08:05:23;;;;;;;17.83;10.07;;;;;;;9.24;100.00;100490.97;5053213;28;20029;-83
2022/04/05 08:11:22;;;;;;;15.03;9.83;;;;;;;9.37;100.00;100500.09;5053504;28;20039;-83
2022/04/05 08:13:48;;;;;;;19.27;10.03;;;;;;;9.38;100.00;100501.78;5051553;28;20029;-82
2022/04/05 08:16:16;;;;;;;16.77;9.93;;;;;;;9.39;100.00;100503.44;5051813;28;20502;-83
2022/04/05 08:18:42;;;;;;;15.20;9.30;;;;;;;9.37;100.00;100497.41;5054078;28;20029;-82
2022/04/05 08:21:08;;;;;;;17.00;9.10;;;;;;;9.41;100.00;100491.38;5051673;28;20469;-82
2022/04/05 08:23:33;;;;;;;16.23;9.33;;;;;;;9.40;99.84;100505.94;5053675;28;20484;-83
2022/04/05 08:25:59;;;;;;;15.03;8.90;;;;;;;9.46;99.37;100515.91;5052173;28;20476;-84
2022/04/05 08:28:24;;;;;;;16.20;8.60;;;;;;;9.56;99.44;100537.09;5053389;28;20066;-83
2022/04/05 08:30:50;;;;;;;15.50;8.43;;;;;;;9.44;99.47;100512.56;5052493;28;20033;-83
2022/04/05 08:33:15;;;;;;;15.70;8.73;;;;;;;9.45;99.52;100507.97;5051973;28;20033;-84
2022/04/05 08:35:41;;;;;;;15.53;8.53;;;;;;;9.40;99.07;100505.09;5052847;28;20178;-81
2022/04/05 08:38:07;;;;;;;15.43;8.20;;;;;;;9.48;99.58;100518.41;5049921;28;20129;-92
2022/04/05 08:41:01;;;;;;;18.87;9.10;;;;;;;9.70;99.40;100537.06;5050031;28;20033;-83
2022/04/05 08:43:29;;;;;;;13.00;8.23;;;;;;;9.63;99.18;100524.38;5046223;28;20349;-85
2022/04/05 08:46:00;;;;;;;12.13;7.87;;;;;;;9.70;99.09;100526.22;5052577;28;20165;-84
2022/04/05 08:48:27;;;;;;;13.57;8.17;;;;;;;9.73;98.93;100526.63;5053139;28;20032;-83
2022/04/05 08:50:55;;;;;;;15.27;8.27;;;;;;;9.83;98.79;100542.38;5051932;28;20483;-83
2022/04/05 08:53:21;;;;;;;16.23;8.67;;;;;;;9.69;99.59;100527.28;5050291;28;20024;-83
2022/04/05 08:59:08;;;;;;;15.13;8.30;;;;;;;9.46;100.00;100512.34;5045650;28;20120;-84
2022/04/05 09:01:34;;;;;;;15.50;8.20;;;;;;;9.69;100.00;100551.63;5051687;28;20112;-83
2022/04/05 09:04:00;;;;;;;15.83;7.93;;;;;;;9.50;100.00;100532.53;5051489;28;20028;-83
2022/04/05 09:06:31;;;;;;;13.90;8.30;;;;;;;9.52;100.00;100546.69;5052461;28;20059;-83
2022/04/05 09:09:17;;;;;;;15.37;8.03;;;;;;;9.59;100.00;100558.31;5046597;28;20020;-83
2022/04/05 09:11:49;;;;;;;14.03;8.00;;;;;;;9.39;100.00;100519.66;5042586;28;20037;-82
2022/04/05 09:14:23;;;;;;;16.03;8.70;;;;;;;9.56;100.00;100539.81;5047293;28;20456;-83
2022/04/05 09:17:06;;;;;;;15.18;9.18;;;;;;;9.51;100.00;100520.66;5052320;28;20029;-84
2022/04/05 09:19:45;;;;;;;16.53;8.93;;;;;;;9.56;100.00;100525.44;5049780;28;20032;-83
2022/04/05 09:22:11;;;;;;;14.77;8.83;;;;;;;9.59;100.00;100533.13;5048579;28;20028;-82
2022/04/05 09:24:38;;;;;;;14.73;8.50;;;;;;;9.66;100.00;100552.88;5047885;28;20074;-81
2022/04/05 09:27:05;;;;;;;17.67;10.00;;;;;;;9.63;100.00;100540.59;5051639;28;20024;-84
2022/04/05 09:29:40;;;;;;;16.50;9.27;;;;;;;9.67;100.00;100545.56;5052104;28;20461;-82
2022/04/05 09:32:05;;;;;;;14.80;8.90;;;;;;;9.55;100.00;100535.44;5051376;28;20025;-84
2022/04/05 09:34:31;;;;;;;17.20;9.57;;;;;;;9.48;100.00;100533.78;5049764;28;20029;-85
2022/04/05 09:36:56;;;;;;;16.90;9.53;;;;;;;9.57;100.00;100554.13;5033174;28;20040;-83
2022/04/05 09:39:24;;;;;;;14.10;9.17;;;;;;;9.42;100.00;100528.19;5052459;28;20037;-83
2022/04/05 09:42:02;;;;;;;15.37;8.80;;;;;;;9.47;100.00;100546.47;5051429;28;20052;-83
2022/04/05 09:44:33;;;;;;;15.03;8.60;;;;;;;9.60;100.00;100559.97;5049590;28;20036;-82
2022/04/05 09:47:06;;;;;;;14.70;8.70;;;;;;;9.55;100.00;100537.31;5048895;28;20021;-83
2022/04/05 09:49:37;;;;;;;13.30;8.97;;;;;;;9.67;100.00;100551.00;5050893;28;20445;-83
2022/04/05 09:52:20;;;;;;;15.47;9.13;;;;;;;9.68;100.00;100552.66;5050095;28;20518;-83
2022/04/05 09:54:46;;;;;;;14.00;8.70;;;;;;;9.80;100.00;100543.69;5045874;28;20021;-84
2022/04/05 09:57:11;;;;;;;13.80;8.33;;;;;;;10.01;100.00;100570.63;5050880;28;20146;-82
2022/04/05 09:59:42;;;;;;;13.93;7.83;;;;;;;9.82;100.00;100535.34;5050598;28;20033;-82
2022/04/05 10:02:15;;;;;;;12.57;7.93;;;;;;;9.89;100.00;100560.50;5049049;28;20416;-87
2022/04/05 10:05:01;;;;;;;12.40;8.23;;;;;;;9.93;100.00;100569.84;5058120;28;20025;-84
2022/04/05 10:07:28;;;;;;;11.77;7.30;;;;;;;9.79;100.00;100541.16;5049557;28;20021;-82
2022/04/05 10:09:54;;;;;;;12.73;7.00;;;;;;;9.77;100.00;100554.09;5051848;28;20033;-84
2022/04/05 10:12:21;;;;;;;13.00;7.43;;;;;;;9.84;100.00;100586.53;5052932;28;20119;-84
2022/04/05 10:14:46;;;;;;;10.70;7.20;;;;;;;9.73;100.00;100555.56;5054157;28;20041;-85
2022/04/05 10:17:13;;;;;;;11.57;7.07;;;;;;;9.77;100.00;100564.91;5051939;28;20044;-82
2022/04/05 10:19:44;;;;;;;15.20;7.90;;;;;;;9.66;100.00;100550.16;5054678;28;20087;-81
2022/04/05 10:22:11;;;;;;;9.77;6.33;;;;;;;9.70;100.00;100553.28;5049898;28;20364;-82
2022/04/05 10:24:38;;;;;;;12.47;7.03;;;;;;;9.79;100.00;100571.78;5061733;28;20112;-81
2022/04/05 10:27:05;;;;;;;10.87;7.10;;;;;;;9.78;100.00;100567.41;5052875;28;20041;-85
2022/04/05 10:29:31;;;;;;;10.30;7.30;;;;;;;9.71;100.00;100555.78;5041414;28;20059;-86
2022/04/05 10:32:13;;;;;;;11.83;7.20;;;;;;;9.68;100.00;100547.25;5043281;28;20017;-86
2022/04/05 10:34:50;;;;;;;12.77;6.97;;;;;;;9.66;100.00;100549.34;5047700;28;20041;-89
2022/04/05 10:37:19;;;;;;;10.10;6.67;;;;;;;9.77;100.00;100570.31;5058581;28;20037;-84
2022/04/05 10:40:10;;;;;;;14.83;7.20;;;;;;;9.65;100.00;100544.97;5040658;28;20779;-84
2022/04/05 10:42:47;;;;;;;10.40;7.13;;;;;;;9.74;100.00;100549.09;5033462;28;20044;-82
2022/04/05 10:45:13;;;;;;;12.87;7.30;;;;;;;10.00;100.00;100572.53;5053905;28;20124;-86
2022/04/05 10:47:58;;;;;;;12.50;7.33;;;;;;;9.92;100.00;100564.66;5054228;28;20043;-85
2022/04/05 10:50:24;;;;;;;9.97;6.80;;;;;;;9.99;100.00;100560.03;5039100;28;20112;-84
2022/04/05 10:53:19;;;;;;;12.37;7.23;;;;;;;10.09;100.00;100562.25;5031039;28;20066;-83
2022/04/05 10:56:03;;;;;;;10.93;6.87;;;;;;;10.17;99.20;100572.03;5053765;28;20190;-82
2022/04/05 10:58:47;;;;;;;11.17;6.67;;;;;;;10.22;98.91;100569.50;5038412;28;20872;-83
2022/04/05 11:01:24;;;;;;;10.00;6.60;;;;;;;10.10;98.80;100550.41;5038725;28;20041;-84
2022/04/05 11:04:16;;;;;;;11.70;6.70;;;;;;;10.28;98.37;100569.47;5038210;28;20438;-85
2022/04/05 11:07:05;;;;;;;10.63;6.03;;;;;;;10.30;97.38;100572.78;5038754;28;20029;-82
2022/04/05 11:09:39;;;;;;;13.93;6.50;;;;;;;10.13;96.88;100549.97;5038005;28;20033;-85
2022/04/05 11:12:10;;;;;;;11.07;6.25;;;;;;;10.38;97.57;100565.50;5053974;28;20036;-86
2022/04/05 11:14:45;;;;;;;10.87;6.20;;;;;;;10.33;96.41;100559.88;5038256;28;20510;-85
2022/04/05 11:17:14;;;;;;;12.07;6.20;;;;;;;10.40;96.19;100560.69;5038624;28;20057;-86
2022/04/05 11:19:42;;;;;;;9.53;6.20;;;;;;;10.42;96.71;100554.00;5038151;28;20039;-86
2022/04/05 11:22:20;;;;;;;10.93;5.77;;;;;;;10.64;95.29;100570.72;5035597;28;20132;-85
2022/04/05 11:25:07;;;;;;;9.67;6.07;;;;;;;10.59;95.69;100531.81;5038692;28;20075;-85
2022/04/05 11:27:49;;;;;;;10.03;5.40;;;;;;;10.86;95.01;100545.16;5035679;28;20048;-86